Aérodrome :
LOGIN :

S'inscrire | Disclaimer

   EN    FR    IT 

 










Légende :    VFR   VFR Marginal   IFR   IFR Intensif   IFR Très Intensif
Visi : 
Plafond : 
>= 8 km
>= 3000ft
5 à 8 km
1000 à 3000 ft
1500m à 5 km
500 à 1000 ft
800 à 1500m
200 à 500 ft
< 800m
< 200 ft
Symboles :   Orages  Brouillard  Fortes neiges  Fortes précipitations  Vent > 20 kt
SIGMETs :   Divers  Orages  Givrage  Turbulence  Onde Orograph.  Cendres Volcan.






- Altitude de l'aérodrome : 401 ft
- Code IATA : LEQ


EGHC - Land's End

DERNIER METAR :
  • 281350Z 28020KT 9999 FEW008 FEW016CB 06/04 Q1002

METARs EXPIRÉS :
  • 281320Z 30027G38KT 9999 VCSH FEW005 FEW015CB 04/02 Q1002
  • 281250Z 29021T 9999 VCSH FEW010 SCT025 06/03 Q1001
  • 281220Z 28023G33KT 9999 VCSH FEW010CB 06/04 Q1001
  • 281150Z 27024G36KT 9999 VCSH FEW009 SCT015CB 07/03 Q1001
  • 281120Z 26025G36KT 9999 VCSH FEW009 SCT016CB 07/03 Q1001

TAF AMD TAF EGHC
Valide du 28 à 13h jusqu'au 28 à 18h UTC


281340Z 2813/2818 27018G28KT 9999 SCT025
TEMPO 2813/2818 29030G42KT 7000 SHRA
PROB30
TEMPO 2813/2816 3000 +TSGS BKN014



MET'MAP, la Météo Aéronautique d'un coup d'oeil ! - Copyright ORBIFLY Décembre 2007 - Disclaimer

ORBIFLY MET'MAP TEAM :

Programmation & Développement : Alexandra Zaïnal
Sur une idée originale de : Baudouin d'Aumeries
Assistance à la programmation : Marc-Olivier Méhu
Soutien technique & logistique : Manuel Goepfert

Contact : metmap@orbifly.com




SOURCES & CREDITS :

   NOAA